KNFL/NFL METAR and TAF weather

Enter ICAO airport designator
Station Type Date Time Source
KNFL METAR 2020/01/28 10:56 UTC NOAA

KNFL 281056Z AUTO 16011KT 10SM SCT110 04/M02 A3021 RMK AO2 SLP194 T00441022


Station Type Date Time Source
KNFL Decoded METAR 2020/01/28 10:56 UTC NOAA

FALLON NAVAL AIR STATION, NV, United States (KNFL) 39-26N 118-41W 1199M
Jan 28, 2020 - 05:56 AM EST / 2020.01.28 1056 UTC
Wind: from the SSE (160 degrees) at 13 MPH (11 KT):0
Visibility: 10 mile(s):0
Sky conditions: partly cloudy
Temperature: 39.9 F (4.4 C)
Dew Point: 28.0 F (-2.2 C)
Relative Humidity: 62%
Pressure (altimeter): 30.21 in. Hg (1023 hPa)
ob: KNFL 281056Z AUTO 16011KT 10SM SCT110 04/M02 A3021 RMK AO2 SLP194 T00441022
cycle: 11

Station Type Date Time Source
KNFL TAF 2020/01/28 07:48 UTC NOAA

TAF TAF KNFL 2807/2907 VRB06KT 9999 BKN060 BKN120 BKN250 650609 QNH3026INS
FM281200 VRB06KT 9999 BKN060 BKN120 BKN250 650609 QNH3025INS
FM281800 23012G18KT 9999 VCSH SCT030 BKN060 OVC100 650609 QNH3025INS
TEMPO 2818/2900 8000 SHRA BKN030 OVC050 AUTOMATED SENSOR METWATCH 2807 TIL 2814 T00/2815Z T14/2823Z FS30153

Example: see airport list